Time;durP1;ratioP1;P1;durP2;ratioP2;P2;SDS_P1;SDS_P2;PMS_P1;PMS_P2;Temp;Humidity;BMP_temperature;BMP_pressure;BME280_temperature;BME280_humidity;BME280_pressure;Samples;Min_cycle;Max_cycle;Signal;HPM_P1;HPM_P2
2022/03/21 00:00:55;;;;;;;;;;;;;;;21.47;37.52;103183.88;4994471;28;4170;-65
2022/03/21 00:03:24;;;;;;;;;;;;;;;21.50;37.53;103184.78;4992920;28;4287;-63
2022/03/21 00:05:50;;;;;;;;;;;;;;;21.47;37.78;103186.00;4997725;28;4168;-66
2022/03/21 00:08:17;;;;;;;;;;;;;;;21.48;37.68;103181.75;4997366;28;4177;-65
2022/03/21 00:10:44;;;;;;;;;;;;;;;21.47;37.57;103177.34;4998920;28;5083;-64
2022/03/21 00:13:14;;;;;;;;;;;;;;;21.49;37.46;103180.38;4989813;28;5520;-66
2022/03/21 00:15:43;;;;;;;;;;;;;;;21.48;37.71;103175.97;4995576;28;4217;-64
2022/03/21 00:18:13;;;;;;;;;;;;;;;21.46;37.68;103176.59;4998350;28;4092;-65
2022/03/21 00:20:43;;;;;;;;;;;;;;;21.48;37.53;103181.75;5000364;28;4290;-65
2022/03/21 00:23:09;;;;;;;;;;;;;;;21.46;37.63;103191.00;4999421;28;4424;-65
2022/03/21 00:25:36;;;;;;;;;;;;;;;21.47;37.62;103175.22;4995924;28;5270;-65
2022/03/21 00:28:02;;;;;;;;;;;;;;;21.47;37.80;103186.75;4999762;28;4076;-65
2022/03/21 00:30:29;;;;;;;;;;;;;;;21.47;37.60;103183.88;4997818;28;4181;-65
2022/03/21 00:32:56;;;;;;;;;;;;;;;21.48;37.58;103187.50;5003325;28;5380;-65
2022/03/21 00:35:22;;;;;;;;;;;;;;;21.48;37.67;103187.50;5000580;28;4204;-65
2022/03/21 00:37:49;;;;;;;;;;;;;;;21.46;37.75;103181.56;5000414;28;4253;-65
2022/03/21 00:40:16;;;;;;;;;;;;;;;21.48;37.42;103190.38;4998768;28;4214;-66
2022/03/21 00:42:42;;;;;;;;;;;;;;;21.49;37.48;103189.78;4999937;28;4058;-65
2022/03/21 00:45:15;;;;;;;;;;;;;;;21.48;37.67;103199.03;4997218;28;4180;-65
2022/03/21 00:47:42;;;;;;;;;;;;;;;21.46;37.61;103187.34;4999029;28;4309;-66
2022/03/21 00:50:09;;;;;;;;;;;;;;;21.47;37.64;103191.75;4997291;28;5332;-66
2022/03/21 00:52:54;;;;;;;;;;;;;;;21.45;37.58;103194.47;4996956;28;4222;-65
2022/03/21 00:55:21;;;;;;;;;;;;;;;21.45;37.72;103194.47;5000366;28;5268;-65
2022/03/21 00:57:47;;;;;;;;;;;;;;;21.48;37.55;103199.03;4998696;28;4232;-64
2022/03/21 01:00:15;;;;;;;;;;;;;;;21.48;37.50;103199.03;4998790;28;4197;-66
2022/03/21 01:02:41;;;;;;;;;;;;;;;21.44;37.85;103192.94;4999318;28;4197;-65
2022/03/21 01:05:08;;;;;;;;;;;;;;;21.46;37.67;103193.09;4998816;28;4176;-64
2022/03/21 01:07:34;;;;;;;;;;;;;;;21.46;37.71;103196.00;4999441;28;4228;-65
2022/03/21 01:10:01;;;;;;;;;;;;;;;21.46;37.82;103193.09;4995866;28;5457;-65
2022/03/21 01:12:27;;;;;;;;;;;;;;;21.47;37.57;103191.75;4997451;28;5266;-65
2022/03/21 01:14:53;;;;;;;;;;;;;;;21.44;37.65;103187.97;4999226;28;4164;-65
2022/03/21 01:17:20;;;;;;;;;;;;;;;21.46;37.75;103190.22;4998832;28;5276;-65
2022/03/21 01:19:46;;;;;;;;;;;;;;;21.45;37.58;103177.19;4993649;28;4149;-66
2022/03/21 01:22:13;;;;;;;;;;;;;;;21.46;37.61;103184.47;4993895;28;5529;-65
2022/03/21 01:24:39;;;;;;;;;;;;;;;21.46;37.67;103178.69;4996037;28;4182;-66
2022/03/21 01:27:06;;;;;;;;;;;;;;;21.46;37.58;103178.69;4997558;28;4263;-65
2022/03/21 01:29:32;;;;;;;;;;;;;;;21.49;37.63;103177.50;4996147;28;5437;-65
2022/03/21 01:31:58;;;;;;;;;;;;;;;21.46;37.54;103173.72;4997637;28;4289;-65
2022/03/21 01:34:25;;;;;;;;;;;;;;;21.47;37.67;103171.59;4994103;28;4170;-65
2022/03/21 01:36:51;;;;;;;;;;;;;;;21.45;37.67;103171.41;4995052;28;5534;-65
2022/03/21 01:39:17;;;;;;;;;;;;;;;21.45;37.57;103169.28;4996197;28;4275;-66
2022/03/21 01:41:44;;;;;;;;;;;;;;;21.45;37.62;103169.28;4993276;28;4233;-65
2022/03/21 01:44:10;;;;;;;;;;;;;;;21.45;37.62;103166.41;4998121;28;4200;-65
2022/03/21 01:46:37;;;;;;;;;;;;;;;21.46;37.58;103167.16;4999850;28;4363;-65
2022/03/21 01:49:04;;;;;;;;;;;;;;;21.46;37.56;103167.94;5012318;28;4171;-65
2022/03/21 01:51:31;;;;;;;;;;;;;;;21.47;37.69;103171.59;5012683;28;4287;-65
2022/03/21 01:56:43;;;;;;;;;;;;;;;21.45;37.50;103165.66;5014885;28;4147;-65
2022/03/21 01:59:09;;;;;;;;;;;;;;;21.46;37.55;103156.41;5018124;28;4268;-65
2022/03/21 02:01:36;;;;;;;;;;;;;;;21.46;37.58;103155.63;5013640;28;6342;-65
2022/03/21 02:04:03;;;;;;;;;;;;;;;21.46;37.64;103161.41;5014727;28;4057;-66
2022/03/21 02:06:29;;;;;;;;;;;;;;;21.45;37.61;103166.41;5012673;28;4254;-65
2022/03/21 02:08:57;;;;;;;;;;;;;;;21.43;37.68;103163.38;5011944;28;4218;-65
2022/03/21 02:11:26;;;;;;;;;;;;;;;21.44;37.59;103158.34;5018805;28;4221;-65
2022/03/21 02:13:55;;;;;;;;;;;;;;;21.45;37.54;103152.00;5015760;28;4116;-65
2022/03/21 02:16:22;;;;;;;;;;;;;;;21.45;37.63;103157.00;5016680;28;5232;-66
2022/03/21 02:18:49;;;;;;;;;;;;;;;21.45;37.74;103154.13;5015425;28;4115;-66
2022/03/21 02:21:31;;;;;;;;;;;;;;;21.45;37.70;103151.25;5013565;28;4198;-65
2022/03/21 02:24:07;;;;;;;;;;;;;;;21.41;37.73;103145.16;5013482;28;4381;-66
2022/03/21 02:26:35;;;;;;;;;;;;;;;21.43;37.59;103145.31;5015938;28;4311;-65
2022/03/21 02:29:01;;;;;;;;;;;;;;;21.44;37.59;103144.72;5007980;28;4234;-65
2022/03/21 02:31:28;;;;;;;;;;;;;;;21.44;37.60;103153.38;5016673;28;4202;-65
2022/03/21 02:33:54;;;;;;;;;;;;;;;21.44;37.71;103158.34;5015144;28;4012;-65
2022/03/21 02:36:20;;;;;;;;;;;;;;;21.43;37.63;103153.97;5013652;28;4649;-65
2022/03/21 02:38:47;;;;;;;;;;;;;;;21.43;37.60;103146.06;5019032;28;4211;-65
2022/03/21 02:41:14;;;;;;;;;;;;;;;21.43;37.77;103146.06;5015772;28;4034;-65
2022/03/21 02:43:53;;;;;;;;;;;;;;;21.42;37.66;103149.56;5014890;28;4385;-65
2022/03/21 02:46:20;;;;;;;;;;;;;;;21.42;37.74;103143.81;5014164;28;4275;-66
2022/03/21 02:48:46;;;;;;;;;;;;;;;21.45;37.55;103148.34;5013135;28;5238;-65
2022/03/21 02:51:13;;;;;;;;;;;;;;;21.44;37.57;103153.38;5017429;28;4249;-64
2022/03/21 02:53:39;;;;;;;;;;;;;;;21.41;37.74;103148.78;5015684;28;4267;-65
2022/03/21 02:56:05;;;;;;;;;;;;;;;21.41;37.80;103148.78;5014217;28;5003;-65
2022/03/21 02:58:32;;;;;;;;;;;;;;;21.44;37.65;103152.59;5016238;28;4265;-65
2022/03/21 03:01:07;;;;;;;;;;;;;;;21.44;37.59;103153.38;5017236;28;4169;-65
2022/03/21 03:03:34;;;;;;;;;;;;;;;21.44;37.59;103152.59;5014080;28;4462;-65
2022/03/21 03:06:00;;;;;;;;;;;;;;;21.43;37.58;103153.97;5015790;28;4239;-65
2022/03/21 03:08:27;;;;;;;;;;;;;;;21.43;37.74;103156.84;5016864;28;4133;-65
2022/03/21 03:10:53;;;;;;;;;;;;;;;21.44;37.69;103150.50;5018317;28;4262;-65
2022/03/21 03:13:19;;;;;;;;;;;;;;;21.43;37.69;103151.06;5015625;28;5466;-65
2022/03/21 03:15:49;;;;;;;;;;;;;;;21.43;37.71;103145.31;5015919;28;4250;-65
2022/03/21 03:18:16;;;;;;;;;;;;;;;21.42;37.71;103143.81;5015279;28;4390;-65
2022/03/21 03:20:44;;;;;;;;;;;;;;;21.42;37.67;103161.09;5017648;28;4296;-65
2022/03/21 03:23:11;;;;;;;;;;;;;;;21.42;37.63;103149.56;5016553;28;4324;-64
2022/03/21 03:25:37;;;;;;;;;;;;;;;21.42;37.74;103150.31;5017496;28;5275;-66
2022/03/21 03:28:04;;;;;;;;;;;;;;;21.42;37.84;103147.44;5015014;28;4314;-66
2022/03/21 03:30:30;;;;;;;;;;;;;;;21.43;37.70;103145.31;5018039;28;5263;-65
2022/03/21 03:32:57;;;;;;;;;;;;;;;21.40;37.68;103147.28;5016257;28;4209;-65
2022/03/21 03:35:23;;;;;;;;;;;;;;;21.41;37.62;103142.28;5013936;28;4172;-65
2022/03/21 03:37:49;;;;;;;;;;;;;;;21.40;37.56;103140.72;5017512;28;4181;-66
2022/03/21 03:40:17;;;;;;;;;;;;;;;21.38;37.76;103143.44;5017321;28;4190;-66
2022/03/21 03:42:44;;;;;;;;;;;;;;;21.37;37.82;103136.16;5014965;28;5278;-64
2022/03/21 03:45:10;;;;;;;;;;;;;;;21.38;37.82;103144.22;5013873;28;5255;-65
2022/03/21 03:47:36;;;;;;;;;;;;;;;21.40;37.59;103150.16;5012989;28;4621;-65
2022/03/21 03:50:03;;;;;;;;;;;;;;;21.42;37.56;103143.81;5012000;28;4075;-65
2022/03/21 03:52:29;;;;;;;;;;;;;;;21.43;37.67;103151.84;5018662;28;4205;-66
2022/03/21 03:54:55;;;;;;;;;;;;;;;21.42;37.60;103152.44;5021041;28;4428;-66
2022/03/21 03:57:22;;;;;;;;;;;;;;;21.43;37.67;103148.19;5015895;28;5225;-65
2022/03/21 03:59:48;;;;;;;;;;;;;;;21.40;37.66;103149.38;5020816;28;4057;-65
2022/03/21 04:02:15;;;;;;;;;;;;;;;21.43;37.60;103148.94;5015351;28;4404;-65
2022/03/21 04:04:42;;;;;;;;;;;;;;;21.41;37.66;103143.03;5021329;28;5429;-65
2022/03/21 04:07:08;;;;;;;;;;;;;;;21.41;37.76;103148.03;5019126;28;4177;-65
2022/03/21 04:09:35;;;;;;;;;;;;;;;21.40;37.96;103153.03;5018888;28;4077;-66
2022/03/21 04:12:02;;;;;;;;;;;;;;;21.42;37.72;103143.81;5019939;28;4294;-66
2022/03/21 04:14:29;;;;;;;;;;;;;;;21.40;37.97;103143.63;5019485;28;4337;-65
2022/03/21 04:16:55;;;;;;;;;;;;;;;21.41;37.82;103142.28;5018706;28;4232;-65
2022/03/21 04:19:21;;;;;;;;;;;;;;;21.40;38.07;103147.28;5020234;28;4230;-65
2022/03/21 04:21:48;;;;;;;;;;;;;;;21.41;38.05;103153.78;5020262;28;4220;-65
2022/03/21 04:24:14;;;;;;;;;;;;;;;21.41;38.00;103153.78;5019411;28;4184;-65
2022/03/21 04:26:41;;;;;;;;;;;;;;;21.39;37.96;103153.59;5018009;28;4171;-65
2022/03/21 04:29:07;;;;;;;;;;;;;;;21.31;38.28;103154.50;5017735;28;4242;-63
2022/03/21 04:31:33;;;;;;;;;;;;;;;21.41;38.03;103153.78;5015082;28;4220;-64
2022/03/21 04:34:00;;;;;;;;;;;;;;;21.42;38.10;103155.34;5018121;28;4236;-65
2022/03/21 04:36:27;;;;;;;;;;;;;;;21.42;37.90;103156.09;5017767;28;4077;-64
2022/03/21 04:38:54;;;;;;;;;;;;;;;21.43;37.78;103162.59;5022396;28;4052;-64
2022/03/21 04:41:20;;;;;;;;;;;;;;;21.44;38.00;103158.34;5019541;28;4195;-64
2022/03/21 04:43:47;;;;;;;;;;;;;;;21.42;38.30;103161.09;5018355;28;4298;-64
2022/03/21 04:46:13;;;;;;;;;;;;;;;21.42;38.31;103163.97;5017801;28;4249;-64
2022/03/21 04:48:40;;;;;;;;;;;;;;;21.42;38.32;103161.09;5021281;28;4302;-63
2022/03/21 04:51:07;;;;;;;;;;;;;;;21.42;38.35;103166.88;5021323;28;4198;-64
2022/03/21 04:53:33;;;;;;;;;;;;;;;21.41;38.57;103171.09;5017195;28;4451;-64
2022/03/21 04:55:59;;;;;;;;;;;;;;;21.40;38.60;103169.56;5019254;28;4428;-64
2022/03/21 04:58:26;;;;;;;;;;;;;;;21.41;38.45;103166.09;5018388;28;4291;-64
2022/03/21 05:00:52;;;;;;;;;;;;;;;21.41;38.47;103165.31;5018599;28;4229;-63
2022/03/21 05:03:19;;;;;;;;;;;;;;;21.41;38.43;103174.72;5017126;28;4269;-64
2022/03/21 05:05:45;;;;;;;;;;;;;;;21.41;38.65;103166.09;5017952;28;4241;-64
2022/03/21 05:08:12;;;;;;;;;;;;;;;21.41;38.65;103165.31;5019372;28;4223;-64
2022/03/21 05:10:38;;;;;;;;;;;;;;;21.42;38.68;103166.88;5020010;28;4216;-64
2022/03/21 05:13:06;;;;;;;;;;;;;;;21.41;38.46;103176.84;5020150;28;4295;-65
2022/03/21 05:15:33;;;;;;;;;;;;;;;21.42;38.59;103181.28;5016297;28;4342;-63
2022/03/21 05:17:59;;;;;;;;;;;;;;;21.41;38.59;103171.09;5018850;28;4122;-63
2022/03/21 05:20:27;;;;;;;;;;;;;;;21.40;39.00;103181.09;5015474;28;4354;-64
2022/03/21 05:31:08;;;;;;;;;;;;;;;21.37;39.17;103188.78;5019040;28;4215;-63
2022/03/21 05:36:23;;;;;;;;;;;;;;;21.44;38.60;103187.19;5016069;28;4198;-49
2022/03/21 05:38:50;;;;;;;;;;;;;;;21.43;38.33;103180.66;5017885;28;4356;-51
2022/03/21 05:41:16;;;;;;;;;;;;;;;21.41;38.00;103182.63;5017855;28;4256;-48
2022/03/21 05:43:43;;;;;;;;;;;;;;;21.40;37.92;103186.84;5020771;28;4104;-48
2022/03/21 05:46:09;;;;;;;;;;;;;;;21.39;37.75;103185.31;5016544;28;4290;-49
2022/03/21 05:48:51;;;;;;;;;;;;;;;21.36;37.61;103180.75;5015804;28;4462;-51
2022/03/21 05:51:18;;;;;;;;;;;;;;;21.40;37.69;103181.09;5018471;28;4192;-49
2022/03/21 05:53:48;;;;;;;;;;;;;;;21.32;37.21;103184.81;5018383;28;4160;-48
2022/03/21 05:56:15;;;;;;;;;;;;;;;21.31;37.34;103186.19;5011535;28;5100;-47
2022/03/21 05:58:41;;;;;;;;;;;;;;;21.16;37.04;103183.53;5015928;28;4223;-49
2022/03/21 06:01:08;;;;;;;;;;;;;;;21.20;36.52;103186.75;5014955;28;4219;-52
2022/03/21 06:03:34;;;;;;;;;;;;;;;21.19;36.76;103185.25;5014885;28;4220;-49
2022/03/21 06:06:01;;;;;;;;;;;;;;;21.26;36.50;103175.72;5016911;28;4236;-50
2022/03/21 06:08:27;;;;;;;;;;;;;;;21.29;36.50;103186.03;5012507;28;4182;-49
2022/03/21 06:11:03;;;;;;;;;;;;;;;21.31;36.41;103189.06;5012807;28;5277;-52
2022/03/21 06:13:31;;;;;;;;;;;;;;;21.33;36.33;103182.72;5008148;28;5160;-50
2022/03/21 06:16:00;;;;;;;;;;;;;;;21.36;36.33;103192.28;5009030;28;5361;-50
2022/03/21 06:18:27;;;;;;;;;;;;;;;21.36;36.16;103198.81;5013959;28;4198;-50
2022/03/21 06:20:53;;;;;;;;;;;;;;;21.32;36.21;103205.00;5017584;28;4273;-50
2022/03/21 06:23:19;;;;;;;;;;;;;;;21.32;36.28;103216.53;5017557;28;5296;-49
2022/03/21 06:25:46;;;;;;;;;;;;;;;21.33;36.21;103200.78;5013745;28;4286;-49
2022/03/21 06:28:12;;;;;;;;;;;;;;;21.33;36.28;103209.41;5015959;28;4398;-50
2022/03/21 06:30:39;;;;;;;;;;;;;;;21.25;36.41;103228.94;5015734;28;4322;-50
2022/03/21 06:33:09;;;;;;;;;;;;;;;21.26;36.49;103221.81;5017297;28;4242;-52
2022/03/21 06:35:35;;;;;;;;;;;;;;;21.32;36.43;103222.28;5007896;28;4246;-49
2022/03/21 06:38:01;;;;;;;;;;;;;;;21.32;36.75;103216.53;5015475;28;4195;-51
2022/03/21 06:40:29;;;;;;;;;;;;;;;21.29;36.63;103217.72;5009693;28;4214;-49
2022/03/21 06:42:56;;;;;;;;;;;;;;;21.36;36.43;103229.75;5017940;28;5528;-52
2022/03/21 06:45:22;;;;;;;;;;;;;;;21.37;36.54;103216.84;5017365;28;4080;-51
2022/03/21 06:47:48;;;;;;;;;;;;;;;21.30;35.92;103225.03;5019522;28;4355;-55
2022/03/21 06:50:15;;;;;;;;;;;;;;;21.10;33.54;103217.63;5014892;28;4262;-60
2022/03/21 06:52:44;;;;;;;;;;;;;;;20.95;32.11;103230.13;5012959;28;4277;-52
2022/03/21 06:55:12;;;;;;;;;;;;;;;21.07;33.20;103230.34;5011797;28;5794;-60
2022/03/21 06:57:39;;;;;;;;;;;;;;;21.16;34.18;103218.09;5016594;28;5505;-61
2022/03/21 07:00:05;;;;;;;;;;;;;;;21.21;34.29;103217.09;5016040;28;5379;-61
2022/03/21 07:02:32;;;;;;;;;;;;;;;21.21;34.59;103222.09;5018033;28;5277;-58
2022/03/21 07:04:59;;;;;;;;;;;;;;;21.26;34.51;103227.59;5018329;28;5478;-60
2022/03/21 07:07:25;;;;;;;;;;;;;;;21.30;34.61;103225.03;5017636;28;4200;-59
2022/03/21 07:09:51;;;;;;;;;;;;;;;21.30;34.63;103227.13;5017015;28;4329;-59
2022/03/21 07:12:19;;;;;;;;;;;;;;;21.32;34.56;103228.06;5016631;28;4159;-59
2022/03/21 07:14:46;;;;;;;;;;;;;;;21.29;34.53;103229.25;5015669;28;5245;-58
2022/03/21 07:17:12;;;;;;;;;;;;;;;21.26;34.45;103226.84;5018933;28;4083;-60
2022/03/21 07:19:38;;;;;;;;;;;;;;;21.28;34.31;103227.75;5015815;28;4079;-59
2022/03/21 07:22:06;;;;;;;;;;;;;;;21.26;34.92;103236.22;5014614;28;4331;-58
2022/03/21 07:24:33;;;;;;;;;;;;;;;21.03;34.14;103230.03;5013912;28;4222;-58
2022/03/21 07:27:00;;;;;;;;;;;;;;;21.04;33.86;103220.03;5011751;28;4124;-58
2022/03/21 07:29:26;;;;;;;;;;;;;;;21.17;34.16;103222.53;5010245;28;4257;-58
2022/03/21 07:31:53;;;;;;;;;;;;;;;21.30;34.00;103230.03;5013026;28;4253;-61
2022/03/21 07:34:19;;;;;;;;;;;;;;;21.31;33.32;103217.91;5017035;28;4393;-61
2022/03/21 07:36:46;;;;;;;;;;;;;;;21.39;32.88;103225.66;5011211;28;4350;-61
2022/03/21 07:39:14;;;;;;;;;;;;;;;21.42;31.99;103231.03;5015729;28;4113;-63
2022/03/21 07:41:40;;;;;;;;;;;;;;;21.43;31.65;103220.25;5013417;28;4207;-60
2022/03/21 07:44:06;;;;;;;;;;;;;;;21.49;31.37;103223.63;5016369;28;4216;-60
2022/03/21 07:49:18;;;;;;;;;;;;;;;21.56;31.09;103222.75;5009746;28;5443;-60
2022/03/21 07:51:44;;;;;;;;;;;;;;;21.60;31.46;103223.06;5012515;28;4121;-60
2022/03/21 07:54:11;;;;;;;;;;;;;;;21.64;31.20;103208.97;5013247;28;5284;-64
2022/03/21 07:56:37;;;;;;;;;;;;;;;21.66;30.89;103212.00;5011275;28;4260;-61
2022/03/21 07:59:04;;;;;;;;;;;;;;;21.63;30.70;103221.88;5012136;28;6779;-64
2022/03/21 08:01:30;;;;;;;;;;;;;;;21.66;30.33;103217.00;5013251;28;4205;-64
2022/03/21 08:03:57;;;;;;;;;;;;;;;21.64;30.18;103217.59;5013010;28;4234;-62
2022/03/21 08:06:24;;;;;;;;;;;;;;;21.67;30.12;103216.44;5012272;28;4250;-64
2022/03/21 08:08:50;;;;;;;;;;;;;;;21.65;29.54;103212.63;5016091;28;4254;-63
2022/03/21 08:11:17;;;;;;;;;;;;;;;21.64;30.22;103211.84;5016279;28;4238;-62
2022/03/21 08:13:43;;;;;;;;;;;;;;;21.68;29.92;103217.94;5014793;28;5451;-61
2022/03/21 08:16:10;;;;;;;;;;;;;;;21.73;29.38;103219.00;5012339;28;5212;-61
2022/03/21 08:18:38;;;;;;;;;;;;;;;21.75;29.56;103222.81;5011644;28;4193;-60
2022/03/21 08:21:04;;;;;;;;;;;;;;;21.79;29.25;103221.63;5015405;28;5344;-61
2022/03/21 08:23:31;;;;;;;;;;;;;;;21.74;29.46;103204.00;5013559;28;5230;-61
2022/03/21 08:25:58;;;;;;;;;;;;;;;21.77;29.55;103218.59;5015752;28;4338;-60
2022/03/21 08:28:26;;;;;;;;;;;;;;;21.75;29.69;103217.03;5010831;28;4246;-60
2022/03/21 08:30:52;;;;;;;;;;;;;;;21.75;29.01;103214.16;5012969;28;4329;-61
2022/03/21 08:33:18;;;;;;;;;;;;;;;21.81;28.87;103224.66;5011156;28;4111;-60
2022/03/21 08:35:45;;;;;;;;;;;;;;;21.77;29.17;103218.59;5012902;28;4210;-60
2022/03/21 08:38:11;;;;;;;;;;;;;;;21.70;29.01;103209.44;5007372;28;4174;-62
2022/03/21 08:40:38;;;;;;;;;;;;;;;21.68;29.96;103206.41;5014254;28;4149;-59
2022/03/21 08:43:04;;;;;;;;;;;;;;;21.79;32.22;103205.06;5016132;28;5461;-59
2022/03/21 08:45:31;;;;;;;;;;;;;;;21.86;33.06;103206.31;5019479;28;5451;-56
2022/03/21 08:47:57;;;;;;;;;;;;;;;21.94;33.07;103209.81;5016909;28;4317;-59
2022/03/21 08:50:26;;;;;;;;;;;;;;;22.03;33.45;103202.53;5011373;28;4127;-61
2022/03/21 08:52:54;;;;;;;;;;;;;;;21.99;33.30;103200.13;5017908;28;4276;-58
2022/03/21 08:55:20;;;;;;;;;;;;;;;22.03;33.53;103191.00;5016022;28;4180;-59
2022/03/21 08:57:46;;;;;;;;;;;;;;;21.99;33.69;103193.56;5014061;28;5379;-59
2022/03/21 09:00:13;;;;;;;;;;;;;;;21.99;33.54;103200.13;5018398;28;4894;-59
2022/03/21 09:02:41;;;;;;;;;;;;;;;21.97;33.85;103202.84;5018437;28;4249;-60
2022/03/21 09:05:12;;;;;;;;;;;;;;;21.97;34.03;103194.19;5005824;28;4184;-59
2022/03/21 09:07:39;;;;;;;;;;;;;;;21.99;34.02;103179.94;5016611;28;4183;-58
2022/03/21 09:10:06;;;;;;;;;;;;;;;22.05;34.16;103183.25;5009974;28;4073;-58
2022/03/21 09:12:32;;;;;;;;;;;;;;;21.99;34.37;103182.03;5013944;28;4052;-58
2022/03/21 09:14:59;;;;;;;;;;;;;;;22.03;34.28;103182.34;5011496;28;4274;-58
2022/03/21 09:17:26;;;;;;;;;;;;;;;22.06;34.38;103187.69;5013376;28;4231;-54
2022/03/21 09:19:52;;;;;;;;;;;;;;;21.94;34.66;103175.19;5013659;28;4246;-61
2022/03/21 09:22:19;;;;;;;;;;;;;;;21.84;34.78;103171.53;5014730;28;4204;-59
2022/03/21 09:24:45;;;;;;;;;;;;;;;21.82;34.80;103171.38;5015440;28;5429;-60
2022/03/21 09:27:12;;;;;;;;;;;;;;;21.80;34.90;103171.22;5017712;28;4211;-59
2022/03/21 09:29:39;;;;;;;;;;;;;;;21.77;35.05;103175.31;5013346;28;4119;-59
2022/03/21 09:32:06;;;;;;;;;;;;;;;21.77;34.90;103166.66;5012607;28;4291;-59
2022/03/21 09:34:33;;;;;;;;;;;;;;;21.83;34.68;103170.00;5013297;28;4727;-58
2022/03/21 09:37:00;;;;;;;;;;;;;;;21.88;34.96;103171.84;5016643;28;4252;-56
2022/03/21 09:39:26;;;;;;;;;;;;;;;21.91;34.96;103164.88;5013546;28;8064;-57
2022/03/21 09:41:53;;;;;;;;;;;;;;;21.88;35.09;103172.59;5015268;28;5501;-58
2022/03/21 09:44:19;;;;;;;;;;;;;;;21.89;35.31;103171.22;5010905;28;5299;-58
2022/03/21 09:46:47;;;;;;;;;;;;;;;21.91;35.50;103170.63;5018436;28;4252;-57
2022/03/21 09:49:16;;;;;;;;;;;;;;;21.95;35.40;103168.81;5017242;28;4315;-55
2022/03/21 09:51:43;;;;;;;;;;;;;;;21.92;35.59;103172.16;5024561;28;4195;-57
2022/03/21 09:54:12;;;;;;;;;;;;;;;21.95;35.48;103176.72;5015605;28;4180;-57
2022/03/21 09:56:39;;;;;;;;;;;;;;;21.92;35.62;103175.03;5015599;28;4124;-56
2022/03/21 09:59:05;;;;;;;;;;;;;;;21.94;35.51;103172.31;5016913;28;4290;-57
2022/03/21 10:01:32;;;;;;;;;;;;;;;21.93;35.51;103173.69;5019209;28;4207;-57
2022/03/21 10:03:59;;;;;;;;;;;;;;;21.93;35.55;103167.91;5017388;28;4105;-58
2022/03/21 10:06:27;;;;;;;;;;;;;;;21.97;35.53;103150.91;5012521;28;4223;-58
2022/03/21 10:09:02;;;;;;;;;;;;;;;21.96;35.79;103155.16;5011107;28;4168;-57
2022/03/21 10:11:29;;;;;;;;;;;;;;;21.96;35.91;103158.03;5016254;28;4848;-52
2022/03/21 10:13:55;;;;;;;;;;;;;;;21.89;36.09;103161.81;5012978;28;4191;-60
2022/03/21 10:16:21;;;;;;;;;;;;;;;21.80;32.98;103159.69;5006232;28;4301;-58
2022/03/21 10:18:54;;;;;;;;;;;;;;;21.82;32.41;103151.94;5011943;28;4290;-59
2022/03/21 10:21:21;;;;;;;;;;;;;;;21.90;33.71;103152.56;5017863;28;4217;-59
2022/03/21 10:24:06;;;;;;;;;;;;;;;21.95;34.59;103147.88;5020913;28;5312;-57
2022/03/21 10:26:36;;;;;;;;;;;;;;;21.96;34.90;103158.03;5018594;28;4226;-55
2022/03/21 10:29:05;;;;;;;;;;;;;;;21.98;34.83;103152.41;5014483;28;4367;-56
2022/03/21 10:31:34;;;;;;;;;;;;;;;21.99;35.00;103148.19;5013420;28;4984;-57
2022/03/21 10:34:02;;;;;;;;;;;;;;;22.01;35.48;103159.84;5013256;28;4534;-57
2022/03/21 10:36:31;;;;;;;;;;;;;;;22.02;35.38;103152.75;5015224;28;4195;-56
2022/03/21 10:39:10;;;;;;;;;;;;;;;21.98;35.47;103146.66;5016551;28;4505;-56
2022/03/21 10:41:36;;;;;;;;;;;;;;;22.05;35.39;103151.50;5015296;28;4950;-56
2022/03/21 10:44:06;;;;;;;;;;;;;;;22.03;35.52;103151.34;5013190;28;4213;-55
2022/03/21 10:46:33;;;;;;;;;;;;;;;21.91;35.71;103145.44;5014316;28;5183;-57
2022/03/21 10:49:08;;;;;;;;;;;;;;;21.84;35.92;103143.44;5014183;28;4192;-57
2022/03/21 10:51:47;;;;;;;;;;;;;;;21.95;35.76;103142.84;5013304;28;4216;-57
2022/03/21 10:54:33;;;;;;;;;;;;;;;22.04;35.79;103144.25;5013955;28;4242;-52
2022/03/21 10:56:59;;;;;;;;;;;;;;;22.11;35.93;103137.56;5013700;28;5357;-57
2022/03/21 10:59:25;;;;;;;;;;;;;;;22.09;36.08;103140.28;5010079;28;4228;-53
2022/03/21 11:02:10;;;;;;;;;;;;;;;22.10;36.17;103136.03;5015106;28;4406;-57
2022/03/21 11:04:37;;;;;;;;;;;;;;;22.11;36.14;103131.78;5014782;28;4197;-57
2022/03/21 11:07:04;;;;;;;;;;;;;;;22.11;36.14;103140.44;5014572;28;4649;-56
2022/03/21 11:09:31;;;;;;;;;;;;;;;22.10;36.03;103133.13;5011736;28;4187;-57
2022/03/21 11:11:57;;;;;;;;;;;;;;;22.13;36.44;103134.06;4995770;28;5411;-56
2022/03/21 11:14:24;;;;;;;;;;;;;;;22.15;35.93;103128.44;5010989;28;5318;-58
2022/03/21 11:16:50;;;;;;;;;;;;;;;22.18;36.01;103135.88;5015993;28;4251;-59
2022/03/21 11:19:17;;;;;;;;;;;;;;;22.17;36.30;103132.25;5015423;28;4147;-58
2022/03/21 11:21:43;;;;;;;;;;;;;;;22.17;36.25;103129.38;5012227;28;4401;-58
2022/03/21 11:24:11;;;;;;;;;;;;;;;22.17;36.27;103132.25;5012502;28;4042;-58
2022/03/21 11:26:49;;;;;;;;;;;;;;;22.20;36.09;103127.38;5016801;28;4175;-58
2022/03/21 11:29:34;;;;;;;;;;;;;;;22.21;36.03;103122.38;5014250;28;4247;-58
2022/03/21 11:32:19;;;;;;;;;;;;;;;22.20;36.25;103112.22;5009036;28;5469;-58
2022/03/21 11:34:57;;;;;;;;;;;;;;;22.20;36.10;103115.09;5012956;28;4180;-56
2022/03/21 11:37:27;;;;;;;;;;;;;;;22.06;35.06;103115.53;5013473;28;4345;-57
2022/03/21 11:40:12;;;;;;;;;;;;;;;22.04;31.30;103117.50;5014057;28;4077;-58
2022/03/21 11:42:38;;;;;;;;;;;;;;;22.00;30.78;103114.31;5014269;28;4343;-56
2022/03/21 11:45:23;;;;;;;;;;;;;;;22.08;32.91;103115.69;5014186;28;3962;-57
2022/03/21 11:47:49;;;;;;;;;;;;;;;22.07;33.61;103099.72;5015297;28;4463;-56
2022/03/21 11:50:25;;;;;;;;;;;;;;;22.05;33.95;103099.56;5014307;28;4261;-55
2022/03/21 11:53:10;;;;;;;;;;;;;;;22.09;34.41;103107.78;5010562;28;4265;-56
2022/03/21 11:55:43;;;;;;;;;;;;;;;22.11;34.68;103099.28;5012253;28;4167;-56
2022/03/21 11:58:38;;;;;;;;;;;;;;;22.10;34.74;103094.88;5013683;28;4291;-58
2022/03/21 12:01:05;;;;;;;;;;;;;;;22.05;35.15;103093.06;5013467;28;4240;-59
2022/03/21 12:03:31;;;;;;;;;;;;;;;22.08;34.97;103081.06;5009441;28;4025;-58
2022/03/21 12:05:58;;;;;;;;;;;;;;;22.13;35.41;103076.34;5014732;28;5339;-57
2022/03/21 12:08:30;;;;;;;;;;;;;;;22.12;35.27;103083.47;5013567;28;4271;-59
2022/03/21 12:10:57;;;;;;;;;;;;;;;22.10;35.45;103068.91;5013797;28;4216;-54
2022/03/21 12:13:23;;;;;;;;;;;;;;;22.12;35.55;103063.28;5015932;28;4181;-53
2022/03/21 12:15:50;;;;;;;;;;;;;;;22.16;35.39;103070.09;5020081;28;4174;-56
2022/03/21 12:18:18;;;;;;;;;;;;;;;22.18;35.31;103061.59;5013401;28;4205;-57
2022/03/21 12:20:50;;;;;;;;;;;;;;;22.17;35.58;103063.00;5018276;28;4413;-55
2022/03/21 12:23:19;;;;;;;;;;;;;;;22.22;35.38;103060.41;5015706;28;4210;-56
2022/03/21 12:25:46;;;;;;;;;;;;;;;22.19;35.49;103056.59;5013432;28;4095;-54
2022/03/21 12:28:18;;;;;;;;;;;;;;;22.17;35.53;103054.34;5013589;28;4207;-57
2022/03/21 12:30:48;;;;;;;;;;;;;;;22.23;35.49;103050.41;5020275;28;4214;-58
2022/03/21 12:33:15;;;;;;;;;;;;;;;22.33;35.74;103048.25;5015028;28;4042;-54
2022/03/21 12:35:45;;;;;;;;;;;;;;;22.35;35.71;103042.63;5018622;28;5329;-55
2022/03/21 12:38:14;;;;;;;;;;;;;;;22.32;35.54;103052.50;5017498;28;5462;-56
2022/03/21 12:40:46;;;;;;;;;;;;;;;22.36;35.70;103049.94;5014828;28;4321;-58
2022/03/21 12:43:12;;;;;;;;;;;;;;;22.34;35.72;103049.78;5019391;28;4129;-58
2022/03/21 12:45:39;;;;;;;;;;;;;;;22.36;35.67;103047.03;5017040;28;4332;-56
2022/03/21 12:48:07;;;;;;;;;;;;;;;22.33;35.63;103036.69;5017675;28;4255;-55
2022/03/21 12:50:33;;;;;;;;;;;;;;;22.35;35.97;103039.72;5013168;28;4218;-51
2022/03/21 12:53:01;;;;;;;;;;;;;;;22.32;36.00;103033.06;5016168;28;4222;-54
2022/03/21 12:55:27;;;;;;;;;;;;;;;22.34;35.60;103026.69;5017957;28;5265;-54
2022/03/21 12:57:57;;;;;;;;;;;;;;;22.33;35.99;103030.91;5013782;28;4185;-55
2022/03/21 13:00:26;;;;;;;;;;;;;;;22.41;35.90;103028.63;5014342;28;4195;-49
2022/03/21 13:02:56;;;;;;;;;;;;;;;22.39;35.74;103034.25;5016585;28;4223;-53
2022/03/21 13:10:54;;;;;;;;;;;;;;;22.42;35.94;103026.50;5015929;28;4203;-50
2022/03/21 13:13:21;;;;;;;;;;;;;;;22.44;35.74;103029.53;5014351;28;4264;-52